createdAt,value
2022-11-20T00:02:33.765Z,-3.84
2022-11-20T00:07:35.672Z,-3.85
2022-11-20T00:12:41.195Z,-3.86
2022-11-20T00:17:43.079Z,-3.86
2022-11-20T00:22:44.971Z,-3.89
2022-11-20T00:27:46.786Z,-3.90
2022-11-20T00:32:48.641Z,-4.00
2022-11-20T00:37:50.505Z,-4.07
2022-11-20T00:42:52.395Z,-4.15
2022-11-20T00:47:58.427Z,-4.23
2022-11-20T00:53:00.230Z,-4.23
2022-11-20T00:58:04.499Z,-4.26
2022-11-20T01:03:06.672Z,-4.29
2022-11-20T01:08:08.624Z,-4.32
2022-11-20T01:13:29.311Z,-4.33
2022-11-20T01:18:31.205Z,-4.34
2022-11-20T01:23:37.886Z,-4.36
2022-11-20T01:28:41.497Z,-4.42
2022-11-20T01:33:44.105Z,-4.47
2022-11-20T01:38:46.506Z,-4.49
2022-11-20T01:43:48.380Z,-4.50
2022-11-20T01:49:22.884Z,-4.54
2022-11-20T01:54:34.924Z,-4.56
2022-11-20T01:59:42.151Z,-4.60
2022-11-20T02:04:44.944Z,-4.57
2022-11-20T02:09:46.754Z,-4.57
2022-11-20T02:14:48.599Z,-4.51
2022-11-20T02:19:50.484Z,-4.52
2022-11-20T02:24:52.501Z,-4.54
2022-11-20T02:30:04.260Z,-4.58
2022-11-20T02:35:10.565Z,-4.61
2022-11-20T02:40:12.419Z,-4.62
2022-11-20T02:45:14.595Z,-4.64
2022-11-20T02:50:17.494Z,-4.71
2022-11-20T02:55:19.440Z,-4.69
2022-11-20T03:00:21.478Z,-4.70
2022-11-20T03:05:23.334Z,-4.72
2022-11-20T03:10:25.170Z,-4.74
2022-11-20T03:15:27.257Z,-4.74
2022-11-20T03:20:29.246Z,-4.75
2022-11-20T03:25:31.331Z,-4.75
2022-11-20T03:30:33.523Z,-4.75
2022-11-20T03:35:35.345Z,-4.75
2022-11-20T03:40:37.265Z,-4.75
2022-11-20T03:45:39.095Z,-4.77
2022-11-20T03:50:40.936Z,-4.82
2022-11-20T03:55:43.349Z,-4.79
2022-11-20T04:00:45.437Z,-4.79
2022-11-20T04:05:47.287Z,-4.78
2022-11-20T04:10:49.173Z,-4.78
2022-11-20T04:15:50.970Z,-4.78
2022-11-20T04:20:52.813Z,-4.80
2022-11-20T04:25:54.788Z,-4.79
2022-11-20T04:31:06.399Z,-4.81
2022-11-20T04:36:12.921Z,-4.81
2022-11-20T04:41:18.231Z,-4.85
2022-11-20T04:46:21.313Z,-4.87
2022-11-20T04:51:23.280Z,-4.87
2022-11-20T04:56:25.107Z,-4.87
2022-11-20T05:01:27.031Z,-4.87
2022-11-20T05:06:29.727Z,-4.89
2022-11-20T05:11:33.219Z,-4.90
2022-11-20T05:16:36.420Z,-4.95
2022-11-20T05:21:38.263Z,-4.99
2022-11-20T05:26:40.091Z,-5.04
2022-11-20T05:31:42.751Z,-5.04
2022-11-20T05:36:44.567Z,-4.85
2022-11-20T05:41:46.391Z,-4.89
2022-11-20T05:46:48.251Z,-4.99
2022-11-20T05:51:50.041Z,-5.09
2022-11-20T05:56:51.969Z,-5.15
2022-11-20T06:01:53.824Z,-5.17
2022-11-20T06:06:55.749Z,-5.17
2022-11-20T06:11:57.687Z,-5.20
2022-11-20T06:16:59.690Z,-5.21
2022-11-20T06:22:01.511Z,-5.26
2022-11-20T06:27:03.403Z,-5.26
2022-11-20T06:32:05.322Z,-5.21
2022-11-20T06:37:10.030Z,-5.16
2022-11-20T06:42:11.935Z,-5.10
2022-11-20T06:47:13.753Z,-5.01
2022-11-20T06:52:15.583Z,-4.88
2022-11-20T06:57:17.447Z,-4.75
2022-11-20T07:02:19.257Z,-4.59
2022-11-20T07:07:21.072Z,-4.50
2022-11-20T07:12:22.957Z,-4.40
2022-11-20T07:17:24.759Z,-4.27
2022-11-20T07:22:26.560Z,-4.08
2022-11-20T07:27:29.045Z,-3.37
2022-11-20T07:32:31.017Z,-2.75
2022-11-20T07:37:36.054Z,-2.58
2022-11-20T07:42:37.883Z,-2.46
2022-11-20T07:47:39.718Z,-2.27
2022-11-20T07:52:42.114Z,-2.10
2022-11-20T07:57:43.992Z,-1.87
2022-11-20T08:02:45.787Z,-1.31
2022-11-20T08:07:47.998Z,-1.07
2022-11-20T08:13:12.863Z,-0.94
2022-11-20T08:18:30.613Z,-0.80
2022-11-20T08:23:33.902Z,-0.66
2022-11-20T08:28:35.829Z,-0.50
2022-11-20T08:33:37.739Z,-0.32
2022-11-20T08:38:39.651Z,-0.22
2022-11-20T08:43:41.532Z,-0.18
2022-11-20T08:48:43.830Z,-0.16
2022-11-20T08:53:49.598Z,-0.09
2022-11-20T08:59:18.292Z,0.04
2022-11-20T09:04:15.500Z,0.13
2022-11-20T09:09:19.029Z,0.29
2022-11-20T09:14:22.456Z,0.42
2022-11-20T09:19:35.769Z,0.47
2022-11-20T09:24:38.585Z,0.55
2022-11-20T09:29:40.433Z,0.75
2022-11-20T09:34:43.290Z,0.90
2022-11-20T09:39:45.095Z,1.07
2022-11-20T09:45:10.294Z,1.23
2022-11-20T09:50:42.078Z,1.40
2022-11-20T09:55:44.053Z,1.58
2022-11-20T10:00:47.103Z,1.82
2022-11-20T10:05:54.203Z,1.89
2022-11-20T10:11:08.297Z,1.98
2022-11-20T10:17:01.587Z,2.21
2022-11-20T10:22:18.810Z,2.37
2022-11-20T10:27:29.745Z,2.56
2022-11-20T10:32:38.546Z,2.74
2022-11-20T10:37:45.660Z,2.88
2022-11-20T10:43:02.316Z,3.03
2022-11-20T10:48:18.250Z,3.20
2022-11-20T10:53:38.660Z,3.30
2022-11-20T10:59:24.344Z,3.29
2022-11-20T11:04:46.457Z,3.30
2022-11-20T11:09:54.732Z,3.45
2022-11-20T11:14:58.656Z,3.67
2022-11-20T11:20:24.863Z,3.87
2022-11-20T11:25:37.950Z,3.92
2022-11-20T11:30:45.046Z,3.84
2022-11-20T11:35:51.732Z,3.92
2022-11-20T11:40:57.457Z,4.02
2022-11-20T11:46:00.251Z,4.18
2022-11-20T11:51:02.192Z,4.19
2022-11-20T11:56:11.884Z,4.12
2022-11-20T12:01:32.972Z,3.97
2022-11-20T12:06:40.325Z,3.83
2022-11-20T12:11:53.867Z,3.82
2022-11-20T12:16:58.617Z,3.87
2022-11-20T12:22:36.819Z,4.03
2022-11-20T12:27:53.894Z,4.22
2022-11-20T12:33:30.344Z,4.33
2022-11-20T12:38:53.589Z,4.34
2022-11-20T12:44:32.287Z,4.33
2022-11-20T12:49:50.189Z,4.35
2022-11-20T12:55:15.950Z,4.34
2022-11-20T13:00:22.005Z,4.30
2022-11-20T13:06:01.834Z,4.25
2022-11-20T13:11:16.058Z,4.24
2022-11-20T13:16:30.997Z,4.13
2022-11-20T13:21:41.994Z,4.02
2022-11-20T13:26:43.816Z,3.89
2022-11-20T13:31:48.302Z,3.88
2022-11-20T13:36:53.131Z,3.86
2022-11-20T13:41:58.061Z,3.76
2022-11-20T13:47:00.167Z,3.68
2022-11-20T13:52:20.900Z,3.66
2022-11-20T13:57:40.176Z,3.60
2022-11-20T14:02:43.630Z,3.58
2022-11-20T14:07:46.259Z,3.53
2022-11-20T14:12:48.996Z,3.50
2022-11-20T14:17:50.867Z,3.44
2022-11-20T14:22:54.347Z,3.39
2022-11-20T14:27:58.785Z,3.37
2022-11-20T14:33:04.482Z,3.32
2022-11-20T14:38:14.053Z,3.24
2022-11-20T14:43:23.507Z,3.10
2022-11-20T14:48:31.834Z,3.04
2022-11-20T14:53:33.682Z,2.98
2022-11-20T14:58:35.538Z,2.92
2022-11-20T15:03:40.202Z,2.91
2022-11-20T15:08:52.450Z,2.90
2022-11-20T15:13:54.344Z,2.92
2022-11-20T15:18:56.565Z,2.94
2022-11-20T15:23:58.477Z,2.97
2022-11-20T15:29:00.540Z,2.94
2022-11-20T15:34:02.333Z,2.95
2022-11-20T15:39:04.163Z,2.94
2022-11-20T15:44:06.533Z,2.96
2022-11-20T15:49:13.344Z,2.95
2022-11-20T15:54:21.920Z,2.93
2022-11-20T15:59:24.028Z,2.88
2022-11-20T16:04:26.223Z,2.85
2022-11-20T16:09:28.253Z,2.87
2022-11-20T16:14:48.808Z,2.83
2022-11-20T16:19:50.636Z,2.75
2022-11-20T16:24:52.762Z,2.62
2022-11-20T16:29:54.581Z,2.48
2022-11-20T16:34:56.425Z,2.41
2022-11-20T16:39:58.294Z,2.25
2022-11-20T16:45:00.127Z,2.11
2022-11-20T16:50:06.334Z,1.98
2022-11-20T16:55:08.469Z,1.82
2022-11-20T17:00:10.728Z,1.73
2022-11-20T17:05:12.514Z,1.62
2022-11-20T17:10:14.407Z,1.51
2022-11-20T17:15:16.279Z,1.44
2022-11-20T17:20:18.102Z,1.39
2022-11-20T17:25:19.925Z,1.29
2022-11-20T17:30:21.760Z,1.23
2022-11-20T17:35:23.557Z,1.18
2022-11-20T17:40:27.556Z,1.11
2022-11-20T17:45:29.840Z,1.06
2022-11-20T17:50:31.710Z,1.04
2022-11-20T17:55:55.859Z,1.03
2022-11-20T18:01:06.103Z,1.00
2022-11-20T18:06:28.932Z,0.97
2022-11-20T18:11:34.118Z,0.93
2022-11-20T18:16:39.736Z,0.89
2022-11-20T18:21:42.130Z,0.84
2022-11-20T18:26:44.774Z,0.78
2022-11-20T18:31:46.714Z,0.77
2022-11-20T18:36:49.543Z,0.76
2022-11-20T18:42:10.644Z,0.82
2022-11-20T18:47:16.211Z,0.86
2022-11-20T18:52:44.930Z,0.89
2022-11-20T18:57:46.944Z,0.94
2022-11-20T19:02:48.847Z,0.98
2022-11-20T19:07:50.782Z,1.04
2022-11-20T19:12:52.666Z,1.08
2022-11-20T19:17:55.428Z,1.22
2022-11-20T19:22:57.234Z,1.23
2022-11-20T19:27:59.754Z,1.26
2022-11-20T19:33:01.601Z,1.25
2022-11-20T19:38:05.614Z,1.19
2022-11-20T19:43:07.632Z,1.14
2022-11-20T19:48:09.484Z,1.16
2022-11-20T19:53:11.789Z,1.17
2022-11-20T19:58:13.640Z,1.20
2022-11-20T20:03:15.536Z,1.28
2022-11-20T20:08:17.365Z,1.28
2022-11-20T20:13:19.185Z,1.31
2022-11-20T20:18:21.022Z,1.36
2022-11-20T20:23:22.875Z,1.45
2022-11-20T20:28:24.710Z,1.48
2022-11-20T20:33:26.515Z,1.55
2022-11-20T20:38:28.374Z,1.68
2022-11-20T20:43:31.541Z,1.79
2022-11-20T20:48:33.383Z,1.89
2022-11-20T20:53:35.178Z,2.03
2022-11-20T20:58:37.097Z,2.14
2022-11-20T21:03:39.279Z,2.28
2022-11-20T21:08:44.119Z,2.42
2022-11-20T21:13:48.237Z,2.58
2022-11-20T21:18:50.783Z,2.72
2022-11-20T21:23:53.701Z,2.84
2022-11-20T21:28:57.137Z,2.96
2022-11-20T21:33:59.155Z,3.06
2022-11-20T21:39:01.045Z,3.13
2022-11-20T21:49:28.350Z,3.08
2022-11-20T21:54:31.428Z,3.06
2022-11-20T21:59:33.237Z,3.09
2022-11-20T22:04:35.055Z,3.06
2022-11-20T22:09:38.838Z,2.99
2022-11-20T22:14:44.612Z,2.84
2022-11-20T22:19:46.485Z,2.73
2022-11-20T22:24:48.333Z,2.63
2022-11-20T22:29:50.193Z,2.55
2022-11-20T22:34:52.081Z,2.55
2022-11-20T22:39:53.889Z,2.57
2022-11-20T22:44:55.730Z,2.53
2022-11-20T22:49:57.594Z,2.48
2022-11-20T22:54:59.441Z,2.38
2022-11-20T23:00:01.320Z,2.25
2022-11-20T23:05:03.177Z,2.12
2022-11-20T23:10:06.757Z,2.00
2022-11-20T23:15:09.447Z,1.87
2022-11-20T23:20:11.575Z,1.76
2022-11-20T23:25:13.391Z,1.64
2022-11-20T23:30:15.553Z,1.53
2022-11-20T23:35:17.370Z,1.41
2022-11-20T23:40:19.202Z,1.33
2022-11-20T23:45:21.042Z,1.28
2022-11-20T23:50:22.928Z,1.25
2022-11-20T23:55:24.811Z,1.17
